PST: 02:25 MST: 03:25 CST: 04:25 EST: 05:25 LDN: 10:25 UTC: 10:25
User Agent: CCBot/2.0 (http://commoncrawl.org/faq/)
IP Address: 54.211.226.90
Hostname: ec2-54-211-226-90.compute-1.amazonaws.com

METAR:
KBFI 230953Z 13003KT 10SM OVC080 01/01 A2965 RMK AO2 SLP039 T00110011
KBFI 230853Z 00000KT 10SM SCT080 02/01 A2962 RMK AO2 SLP029 T00220011 51007
KBFI 230753Z 00000KT 10SM SCT090 02/02 A2961 RMK AO2 SLP028 T00220017 400830022
KBFI 230653Z 00000KT 10SM FEW090 04/02 A2961 RMK AO2 SLP028 T00440017

TAF:
KBFI 230534Z 2306/2406 VRB03KT P6SM BKN080 BKN200
FM 232000 34005KT P6SM SCT100 BKN200

KBFI 222323Z 2300/2324 14008KT P6SM FEW020 SCT050 BKN150 TEMPO 2300/2302 BKN050
FM 230200 12005KT P6SM SCT050 BKN150
FM 230600 05004KT P6SM SCT050
FM 232000 34005KT P6SM SCT250

KBFI 221733Z 2218/2318 12008KT P6SM -RA OVC040
FM 222000 14008KT P6SM SCT040 BKN050
FM 230200 12005KT P6SM SCT050 BKN100
FM 230600 05004KT P6SM SCT050 SCT100

KBFI 221120Z 2212/2312 VRB03KT P6SM SCT050 BKN100
FM 221600 VRB03KT P6SM -RA BKN050 OVC080
FM 221900 15007KT P6SM VCSH BKN035 OVC050
FM 222300 16007KT P6SM SCT050 BKN100